createdAt,value
2023-01-05T00:01:59.001Z,8.07
2023-01-05T00:04:26.430Z,8.25
2023-01-05T00:06:53.868Z,8.38
2023-01-05T00:09:22.442Z,7.88
2023-01-05T00:12:08.219Z,7.55
2023-01-05T00:14:54.428Z,8.20
2023-01-05T00:17:42.029Z,7.05
2023-01-05T00:20:40.060Z,7.30
2023-01-05T00:23:08.449Z,7.18
2023-01-05T00:25:41.004Z,6.80
2023-01-05T00:28:08.950Z,7.18
2023-01-05T00:30:42.607Z,7.90
2023-01-05T00:33:11.396Z,7.05
2023-01-05T00:35:39.498Z,7.25
2023-01-05T00:38:08.607Z,6.72
2023-01-05T00:40:36.820Z,6.88
2023-01-05T00:43:04.436Z,6.53
2023-01-05T00:45:32.068Z,6.63
2023-01-05T00:47:59.425Z,6.82
2023-01-05T00:50:26.990Z,6.65
2023-01-05T00:52:54.341Z,6.03
2023-01-05T00:55:21.897Z,6.90
2023-01-05T00:57:49.295Z,5.95
2023-01-05T01:00:19.484Z,6.63
2023-01-05T01:02:47.453Z,6.00
2023-01-05T01:05:14.977Z,6.93
2023-01-05T01:07:42.314Z,5.97
2023-01-05T01:10:11.177Z,5.60
2023-01-05T01:12:38.567Z,6.22
2023-01-05T01:15:07.412Z,5.45
2023-01-05T01:17:35.062Z,5.95
2023-01-05T01:20:02.382Z,5.68
2023-01-05T01:22:29.804Z,6.18
2023-01-05T01:24:57.153Z,5.90
2023-01-05T01:27:24.469Z,5.60
2023-01-05T01:29:51.846Z,5.50
2023-01-05T01:32:19.138Z,5.65
2023-01-05T01:34:46.469Z,5.65
2023-01-05T01:37:13.923Z,5.40
2023-01-05T01:39:41.267Z,6.07
2023-01-05T01:42:14.245Z,5.18
2023-01-05T01:45:02.692Z,5.47
2023-01-05T01:47:33.441Z,5.40
2023-01-05T01:50:06.510Z,5.43
2023-01-05T01:52:35.938Z,5.43
2023-01-05T01:55:05.908Z,5.25
2023-01-05T01:57:34.964Z,4.90
2023-01-05T02:00:05.450Z,5.43
2023-01-05T02:02:32.944Z,4.50
2023-01-05T02:05:04.925Z,5.10
2023-01-05T02:07:34.780Z,4.38
2023-01-05T02:10:04.550Z,4.35
2023-01-05T02:13:19.012Z,4.90
2023-01-05T02:16:07.005Z,4.88
2023-01-05T02:18:47.418Z,4.63
2023-01-05T02:21:45.225Z,4.65
2023-01-05T02:24:24.702Z,4.35
2023-01-05T02:27:16.252Z,4.30
2023-01-05T02:29:52.282Z,4.68
2023-01-05T02:32:31.248Z,4.68
2023-01-05T02:35:35.963Z,4.50
2023-01-05T02:38:18.555Z,4.07
2023-01-05T02:40:54.058Z,4.53
2023-01-05T02:43:21.548Z,4.22
2023-01-05T02:45:50.091Z,4.15
2023-01-05T02:48:17.385Z,3.70
2023-01-05T02:51:01.125Z,4.30
2023-01-05T02:53:40.408Z,4.00
2023-01-05T02:56:18.455Z,4.05
2023-01-05T02:58:58.249Z,3.63
2023-01-05T03:01:31.310Z,3.80
2023-01-05T03:04:04.182Z,3.55
2023-01-05T03:06:57.384Z,3.92
2023-01-05T03:09:29.097Z,3.75
2023-01-05T03:12:32.553Z,3.75
2023-01-05T03:15:11.835Z,3.90
2023-01-05T03:17:46.609Z,3.38
2023-01-05T03:20:16.635Z,3.38
2023-01-05T03:23:04.258Z,3.30
2023-01-05T03:25:52.379Z,3.50
2023-01-05T03:28:59.927Z,3.33
2023-01-05T03:31:58.299Z,3.05
2023-01-05T03:34:48.379Z,3.10
2023-01-05T03:37:22.174Z,3.75
2023-01-05T03:39:49.849Z,3.37
2023-01-05T03:42:17.505Z,3.38
2023-01-05T03:44:46.298Z,3.10
2023-01-05T03:47:14.551Z,3.28
2023-01-05T03:49:42.198Z,3.10
2023-01-05T03:52:09.553Z,3.13
2023-01-05T03:54:36.933Z,2.75
2023-01-05T03:57:04.278Z,2.85
2023-01-05T03:59:31.646Z,3.28
2023-01-05T04:01:59.096Z,3.35
2023-01-05T04:04:26.520Z,3.00
2023-01-05T04:06:53.801Z,3.00
2023-01-05T04:09:21.187Z,2.70
2023-01-05T04:11:48.563Z,3.00
2023-01-05T04:14:15.855Z,3.35
2023-01-05T04:16:43.230Z,3.78
2023-01-05T04:19:11.316Z,2.80
2023-01-05T04:21:38.608Z,3.50
2023-01-05T04:24:06.336Z,3.17
2023-01-05T04:26:33.607Z,3.03
2023-01-05T04:29:01.052Z,3.33
2023-01-05T04:31:28.418Z,3.67
2023-01-05T04:33:55.862Z,2.65
2023-01-05T04:36:23.234Z,3.08
2023-01-05T04:38:50.543Z,3.38
2023-01-05T04:41:17.895Z,3.10
2023-01-05T04:43:45.319Z,2.58
2023-01-05T04:46:12.682Z,2.83
2023-01-05T04:48:39.937Z,3.20
2023-01-05T04:51:07.432Z,2.67
2023-01-05T04:53:34.838Z,2.72
2023-01-05T04:56:02.177Z,2.95
2023-01-05T04:58:30.691Z,3.10
2023-01-05T05:00:58.058Z,2.72
2023-01-05T05:03:31.099Z,3.00
2023-01-05T05:06:00.358Z,3.35
2023-01-05T05:08:28.019Z,3.10
2023-01-05T05:10:55.313Z,2.88
2023-01-05T05:13:22.737Z,3.42
2023-01-05T05:15:50.279Z,3.20
2023-01-05T05:18:17.973Z,2.45
2023-01-05T05:20:48.975Z,3.28
2023-01-05T05:23:16.360Z,2.92
2023-01-05T05:25:43.659Z,2.45
2023-01-05T05:28:11.212Z,3.28
2023-01-05T05:30:39.132Z,2.95
2023-01-05T05:33:06.773Z,2.92
2023-01-05T05:35:34.109Z,2.67
2023-01-05T05:38:01.604Z,2.70
2023-01-05T05:40:29.241Z,3.15
2023-01-05T05:42:56.584Z,2.88
2023-01-05T05:45:23.898Z,2.90
2023-01-05T05:47:51.207Z,3.08
2023-01-05T05:50:18.501Z,3.30
2023-01-05T05:52:45.919Z,3.10
2023-01-05T05:55:13.268Z,2.92
2023-01-05T05:57:40.560Z,2.60
2023-01-05T06:00:08.493Z,2.70
2023-01-05T06:02:35.951Z,2.78
2023-01-05T06:05:03.376Z,2.67
2023-01-05T06:07:30.742Z,3.22
2023-01-05T06:09:58.069Z,3.10
2023-01-05T06:12:25.587Z,3.00
2023-01-05T06:14:53.015Z,3.05
2023-01-05T06:17:20.380Z,3.10
2023-01-05T06:19:47.705Z,2.58
2023-01-05T06:22:15.032Z,2.55
2023-01-05T06:24:42.541Z,2.88
2023-01-05T06:27:11.100Z,3.50
2023-01-05T06:29:38.604Z,3.22
2023-01-05T06:32:06.091Z,2.97
2023-01-05T06:34:33.577Z,2.50
2023-01-05T06:37:02.554Z,2.80
2023-01-05T06:39:30.125Z,2.85
2023-01-05T06:41:57.490Z,3.25
2023-01-05T06:44:24.843Z,2.88
2023-01-05T06:46:52.143Z,3.15
2023-01-05T06:49:19.523Z,3.40
2023-01-05T06:51:47.020Z,2.33
2023-01-05T06:54:14.475Z,3.53
2023-01-05T06:56:41.905Z,3.17
2023-01-05T06:59:10.974Z,2.90
2023-01-05T07:01:38.636Z,2.72
2023-01-05T07:04:06.124Z,2.78
2023-01-05T07:06:36.017Z,3.05
2023-01-05T07:09:03.620Z,2.85
2023-01-05T07:11:30.977Z,2.40
2023-01-05T07:13:58.242Z,2.17
2023-01-05T07:16:25.751Z,2.53
2023-01-05T07:18:53.251Z,3.33
2023-01-05T07:21:20.662Z,3.05
2023-01-05T07:23:48.036Z,2.78
2023-01-05T07:26:15.367Z,2.88
2023-01-05T07:28:42.774Z,2.88
2023-01-05T07:31:10.090Z,3.25
2023-01-05T07:33:40.033Z,2.88
2023-01-05T07:36:08.222Z,3.13
2023-01-05T07:38:35.560Z,2.47
2023-01-05T07:41:03.675Z,3.03
2023-01-05T07:43:31.047Z,2.60
2023-01-05T07:46:00.127Z,3.33
2023-01-05T07:48:28.371Z,3.03
2023-01-05T07:51:05.754Z,2.90
2023-01-05T07:53:43.909Z,3.17
2023-01-05T07:56:12.963Z,2.55
2023-01-05T07:58:40.748Z,2.65
2023-01-05T08:01:11.958Z,2.70
2023-01-05T08:03:39.906Z,3.30
2023-01-05T08:06:09.157Z,2.60
2023-01-05T08:08:36.752Z,2.55
2023-01-05T08:11:06.087Z,3.28
2023-01-05T08:13:52.225Z,2.97
2023-01-05T08:16:19.885Z,3.05
2023-01-05T08:18:47.455Z,3.40
2023-01-05T08:21:15.173Z,3.10
2023-01-05T08:23:42.495Z,2.75
2023-01-05T08:26:16.490Z,2.95
2023-01-05T08:28:44.319Z,3.22
2023-01-05T08:31:15.520Z,2.78
2023-01-05T08:33:43.052Z,3.70
2023-01-05T08:36:15.590Z,2.88
2023-01-05T08:38:49.321Z,3.00
2023-01-05T08:41:24.476Z,2.77
2023-01-05T08:43:56.751Z,2.90
2023-01-05T08:46:26.326Z,2.85
2023-01-05T08:48:56.242Z,2.75
2023-01-05T08:51:23.668Z,2.45
2023-01-05T08:53:51.525Z,3.35
2023-01-05T08:56:19.260Z,2.78
2023-01-05T08:58:46.661Z,3.35
2023-01-05T09:01:16.954Z,3.13
2023-01-05T09:03:44.834Z,2.85
2023-01-05T09:06:12.972Z,2.85
2023-01-05T09:08:42.026Z,2.50
2023-01-05T09:11:15.747Z,3.38
2023-01-05T09:13:47.774Z,3.33
2023-01-05T09:16:35.186Z,3.05
2023-01-05T09:19:06.772Z,2.95
2023-01-05T09:21:34.182Z,3.30
2023-01-05T09:24:01.507Z,3.15
2023-01-05T09:26:28.909Z,3.13
2023-01-05T09:28:56.287Z,3.17
2023-01-05T09:31:24.079Z,3.30
2023-01-05T09:33:51.822Z,2.95
2023-01-05T09:36:20.331Z,2.97
2023-01-05T09:38:54.435Z,3.03
2023-01-05T09:41:35.508Z,3.17
2023-01-05T09:44:44.054Z,3.28
2023-01-05T09:47:15.365Z,3.38
2023-01-05T09:49:43.294Z,2.95
2023-01-05T09:52:12.285Z,3.10
2023-01-05T09:54:40.687Z,3.35
2023-01-05T09:57:17.477Z,3.22
2023-01-05T09:59:49.315Z,3.75
2023-01-05T10:02:30.685Z,3.38
2023-01-05T10:04:59.711Z,3.33
2023-01-05T10:07:54.301Z,3.88
2023-01-05T10:10:30.163Z,3.27
2023-01-05T10:13:05.565Z,3.47
2023-01-05T10:18:15.444Z,4.55
2023-01-05T10:21:12.453Z,3.80
2023-01-05T10:23:48.631Z,3.70
2023-01-05T10:26:51.056Z,4.63
2023-01-05T10:29:30.679Z,3.78
2023-01-05T10:32:25.996Z,4.13
2023-01-05T10:35:09.298Z,5.32
2023-01-05T10:38:21.859Z,4.97
2023-01-05T10:41:03.117Z,4.93
2023-01-05T10:44:03.307Z,4.95
2023-01-05T10:46:37.763Z,4.97
2023-01-05T10:49:09.246Z,5.22
2023-01-05T10:51:37.389Z,5.00
2023-01-05T10:54:05.739Z,5.53
2023-01-05T10:56:33.215Z,5.45
2023-01-05T10:59:11.960Z,5.47
2023-01-05T11:01:45.959Z,5.05
2023-01-05T11:04:34.384Z,5.28
2023-01-05T11:07:05.544Z,5.50
2023-01-05T11:09:33.889Z,6.10
2023-01-05T11:12:03.322Z,5.30
2023-01-05T11:14:36.211Z,5.03
2023-01-05T11:17:15.673Z,4.95
2023-01-05T11:19:46.832Z,5.40
2023-01-05T11:22:36.161Z,5.90
2023-01-05T11:25:33.372Z,4.57
2023-01-05T11:28:17.825Z,5.13
2023-01-05T11:31:05.884Z,5.93
2023-01-05T11:33:39.617Z,5.65
2023-01-05T11:36:07.489Z,5.97
2023-01-05T11:38:35.474Z,5.38
2023-01-05T11:41:03.048Z,5.95
2023-01-05T11:43:32.989Z,5.20
2023-01-05T11:46:03.380Z,5.55
2023-01-05T11:48:33.673Z,5.10
2023-01-05T11:51:02.741Z,5.85
2023-01-05T11:53:37.921Z,5.00
2023-01-05T11:56:21.714Z,5.38
2023-01-05T11:58:51.933Z,5.43
2023-01-05T12:01:40.613Z,5.85
2023-01-05T12:04:24.007Z,5.63
2023-01-05T12:07:04.879Z,4.85
2023-01-05T12:09:39.497Z,5.80
2023-01-05T12:14:48.681Z,5.47
2023-01-05T12:17:25.166Z,5.78
2023-01-05T12:20:30.148Z,5.97
2023-01-05T12:23:12.246Z,6.03
2023-01-05T12:26:19.575Z,5.47
2023-01-05T12:35:29.833Z,5.78
2023-01-05T12:38:26.704Z,5.95
2023-01-05T12:41:18.356Z,5.45
2023-01-05T12:43:53.595Z,6.43
2023-01-05T12:46:33.222Z,5.40
2023-01-05T12:49:06.178Z,6.03
2023-01-05T12:51:52.779Z,5.95
2023-01-05T12:54:30.086Z,6.15
2023-01-05T12:57:15.274Z,5.63
2023-01-05T12:59:51.393Z,5.18
2023-01-05T13:02:44.682Z,4.85
2023-01-05T13:05:31.174Z,5.43
2023-01-05T13:08:17.572Z,6.28
2023-01-05T13:11:02.924Z,5.32
2023-01-05T13:13:37.133Z,5.28
2023-01-05T13:16:27.334Z,5.88
2023-01-05T13:19:20.598Z,5.93
2023-01-05T13:21:48.661Z,6.80
2023-01-05T13:24:31.285Z,5.85
2023-01-05T13:27:01.499Z,6.60
2023-01-05T13:29:39.094Z,6.32
2023-01-05T13:32:19.125Z,6.38
2023-01-05T13:35:14.235Z,6.82
2023-01-05T13:40:37.393Z,6.72
2023-01-05T13:43:21.000Z,7.78
2023-01-05T13:46:27.514Z,7.13
2023-01-05T13:49:29.950Z,7.30
2023-01-05T13:52:10.700Z,6.80
2023-01-05T13:54:54.435Z,7.28
2023-01-05T13:57:27.426Z,7.47
2023-01-05T14:00:08.309Z,6.57
2023-01-05T14:02:44.352Z,7.97
2023-01-05T14:05:24.635Z,7.40
2023-01-05T14:07:54.227Z,7.90
2023-01-05T14:10:28.928Z,7.53
2023-01-05T14:15:38.560Z,8.48
2023-01-05T14:18:07.658Z,7.75
2023-01-05T14:20:46.897Z,8.35
2023-01-05T14:23:26.286Z,8.18
2023-01-05T14:26:01.115Z,8.40
2023-01-05T14:28:33.491Z,8.90
2023-01-05T14:31:18.986Z,8.32
2023-01-05T14:34:00.796Z,8.65
2023-01-05T14:36:39.526Z,8.40
2023-01-05T14:39:32.275Z,8.50
2023-01-05T14:42:06.879Z,8.50
2023-01-05T14:47:05.838Z,8.32
2023-01-05T14:49:38.029Z,8.20
2023-01-05T14:52:15.151Z,8.40
2023-01-05T14:54:42.363Z,8.35
2023-01-05T14:57:30.992Z,8.25
2023-01-05T15:00:04.305Z,8.00
2023-01-05T15:02:37.770Z,7.65
2023-01-05T15:05:16.038Z,8.00
2023-01-05T15:08:05.086Z,7.88
2023-01-05T15:10:42.853Z,8.77
2023-01-05T15:13:31.172Z,8.57
2023-01-05T15:16:03.429Z,8.07
2023-01-05T15:18:45.994Z,8.25
2023-01-05T15:21:16.043Z,8.05
2023-01-05T15:24:02.522Z,7.80
2023-01-05T15:26:47.969Z,8.80
2023-01-05T15:29:26.983Z,8.13
2023-01-05T15:31:59.110Z,8.13
2023-01-05T15:35:00.432Z,8.60
2023-01-05T15:37:41.657Z,8.48
2023-01-05T15:40:29.148Z,8.65
2023-01-05T15:43:03.841Z,8.52
2023-01-05T15:48:16.877Z,8.20
2023-01-05T15:50:49.785Z,8.25
2023-01-05T15:53:28.399Z,8.98
2023-01-05T15:55:56.801Z,8.90
2023-01-05T15:58:26.176Z,8.32
2023-01-05T16:01:15.192Z,7.85
2023-01-05T16:03:45.854Z,8.02
2023-01-05T16:06:25.296Z,8.13
2023-01-05T16:08:55.561Z,7.97
2023-01-05T16:11:36.935Z,7.82
2023-01-05T16:14:10.688Z,7.97
2023-01-05T16:16:54.084Z,7.40
2023-01-05T16:19:32.323Z,8.07
2023-01-05T16:22:11.600Z,8.07
2023-01-05T16:24:53.917Z,7.25
2023-01-05T16:27:21.894Z,6.97
2023-01-05T16:29:50.006Z,7.03
2023-01-05T16:32:36.895Z,7.28
2023-01-05T16:35:55.221Z,7.30
2023-01-05T16:38:29.116Z,7.07
2023-01-05T16:41:09.947Z,6.93
2023-01-05T16:43:41.901Z,6.97
2023-01-05T16:46:23.909Z,7.18
2023-01-05T16:49:23.946Z,6.50
2023-01-05T16:51:52.012Z,6.63
2023-01-05T16:54:24.657Z,6.45
2023-01-05T16:56:59.455Z,6.65
2023-01-05T16:59:42.064Z,6.47
2023-01-05T17:02:35.140Z,6.68
2023-01-05T17:05:03.540Z,6.20
2023-01-05T17:07:30.873Z,6.47
2023-01-05T17:09:58.236Z,6.82
2023-01-05T17:12:25.880Z,6.35
2023-01-05T17:14:54.793Z,6.57
2023-01-05T17:17:23.966Z,6.53
2023-01-05T17:19:54.220Z,6.50
2023-01-05T17:22:21.986Z,6.63
2023-01-05T17:24:49.475Z,6.13
2023-01-05T17:27:16.863Z,5.82
2023-01-05T17:29:44.142Z,5.90
2023-01-05T17:32:11.752Z,6.10
2023-01-05T17:34:41.085Z,6.03
2023-01-05T17:37:11.248Z,6.00
2023-01-05T17:39:38.529Z,5.50
2023-01-05T17:42:24.210Z,5.25
2023-01-05T17:44:52.085Z,5.90
2023-01-05T17:47:19.454Z,5.75
2023-01-05T17:49:46.796Z,5.10
2023-01-05T17:52:14.199Z,5.28
2023-01-05T17:54:42.424Z,5.30
2023-01-05T17:57:12.977Z,5.65
2023-01-05T18:02:09.433Z,5.07
2023-01-05T18:04:36.782Z,4.85
2023-01-05T18:07:04.262Z,4.90
2023-01-05T18:09:33.740Z,5.40
2023-01-05T18:12:01.263Z,5.65
2023-01-05T18:14:28.893Z,6.22
2023-01-05T18:16:56.265Z,6.80
2023-01-05T18:19:24.250Z,8.52
2023-01-05T18:21:51.717Z,9.88
2023-01-05T18:24:19.142Z,10.73
2023-01-05T18:26:49.408Z,10.45
2023-01-05T18:29:19.943Z,10.15
2023-01-05T18:31:47.535Z,11.75
2023-01-05T18:34:15.079Z,11.40
2023-01-05T18:36:42.634Z,10.15
2023-01-05T18:39:10.059Z,11.45
2023-01-05T18:41:37.467Z,10.93
2023-01-05T18:44:05.062Z,10.85
2023-01-05T18:46:32.595Z,11.05
2023-01-05T18:49:00.130Z,11.10
2023-01-05T18:51:27.532Z,11.25
2023-01-05T18:53:54.939Z,10.13
2023-01-05T18:56:22.353Z,11.35
2023-01-05T18:58:52.222Z,10.93
2023-01-05T19:01:20.847Z,11.55
2023-01-05T19:03:50.600Z,11.07
2023-01-05T19:06:21.077Z,10.70
2023-01-05T19:08:49.344Z,10.77
2023-01-05T19:11:24.980Z,9.90
2023-01-05T19:13:57.536Z,10.50
2023-01-05T19:16:27.792Z,9.93
2023-01-05T19:18:59.276Z,9.90
2023-01-05T19:21:29.395Z,9.55
2023-01-05T19:23:58.732Z,8.95
2023-01-05T19:26:31.597Z,9.20
2023-01-05T19:29:04.077Z,9.60
2023-01-05T19:31:32.158Z,10.38
2023-01-05T19:33:59.533Z,9.40
2023-01-05T19:36:35.593Z,10.15
2023-01-05T19:39:13.983Z,8.90
2023-01-05T19:41:45.072Z,10.00
2023-01-05T19:44:16.144Z,9.90
2023-01-05T19:46:44.660Z,10.48
2023-01-05T19:49:20.937Z,10.57
2023-01-05T19:51:48.753Z,11.40
2023-01-05T19:54:17.101Z,11.63
2023-01-05T19:56:45.387Z,11.43
2023-01-05T19:59:18.463Z,11.73
2023-01-05T20:01:46.271Z,11.95
2023-01-05T20:04:14.215Z,12.25
2023-01-05T20:06:44.346Z,11.63
2023-01-05T20:09:15.803Z,12.02
2023-01-05T20:11:45.156Z,11.93
2023-01-05T20:14:18.087Z,12.63
2023-01-05T20:16:49.138Z,13.68
2023-01-05T20:19:17.477Z,11.40
2023-01-05T20:21:45.715Z,12.23
2023-01-05T20:24:15.776Z,12.13
2023-01-05T20:26:45.173Z,12.55
2023-01-05T20:29:14.114Z,12.65
2023-01-05T20:31:47.960Z,11.73
2023-01-05T20:34:21.232Z,12.10
2023-01-05T20:36:49.769Z,12.13
2023-01-05T20:39:19.837Z,12.10
2023-01-05T20:41:49.488Z,11.95
2023-01-05T20:44:20.244Z,11.80
2023-01-05T20:46:49.645Z,11.85
2023-01-05T20:49:17.393Z,11.70
2023-01-05T20:51:45.180Z,11.23
2023-01-05T20:54:13.314Z,11.07
2023-01-05T20:56:43.778Z,11.95
2023-01-05T20:59:17.431Z,11.48
2023-01-05T21:01:45.561Z,11.88
2023-01-05T21:04:13.478Z,11.90
2023-01-05T21:06:41.539Z,11.63
2023-01-05T21:09:10.011Z,11.98
2023-01-05T21:11:38.282Z,11.68
2023-01-05T21:14:06.786Z,12.40
2023-01-05T21:16:38.120Z,12.75
2023-01-05T21:19:07.247Z,13.02
2023-01-05T21:21:36.058Z,12.77
2023-01-05T21:24:07.611Z,12.02
2023-01-05T21:26:35.559Z,11.50
2023-01-05T21:29:05.685Z,11.32
2023-01-05T21:31:34.932Z,11.00
2023-01-05T21:34:02.446Z,10.40
2023-01-05T21:36:32.100Z,10.68
2023-01-05T21:39:05.914Z,9.93
2023-01-05T21:41:53.249Z,10.85
2023-01-05T21:44:21.376Z,9.30
2023-01-05T21:46:49.846Z,9.70
2023-01-05T21:49:18.136Z,9.18
2023-01-05T21:52:04.912Z,8.75
2023-01-05T21:54:51.025Z,8.43
2023-01-05T21:57:18.343Z,8.00
2023-01-05T21:59:45.758Z,8.30
2023-01-05T22:02:15.384Z,8.38
2023-01-05T22:04:43.774Z,8.45
2023-01-05T22:07:11.348Z,7.38
2023-01-05T22:09:39.241Z,7.65
2023-01-05T22:12:09.103Z,7.30
2023-01-05T22:14:37.755Z,7.10
2023-01-05T22:17:06.817Z,6.55
2023-01-05T22:19:35.127Z,6.72
2023-01-05T22:22:02.531Z,6.07
2023-01-05T22:24:29.987Z,6.70
2023-01-05T22:26:57.564Z,6.40
2023-01-05T22:29:24.993Z,6.00
2023-01-05T22:31:52.721Z,6.20
2023-01-05T22:34:20.165Z,6.57
2023-01-05T22:36:47.657Z,5.60
2023-01-05T22:39:15.103Z,5.78
2023-01-05T22:41:42.421Z,6.30
2023-01-05T22:44:09.890Z,5.80
2023-01-05T22:46:37.271Z,5.70
2023-01-05T22:49:04.887Z,5.63
2023-01-05T22:51:35.962Z,5.57
2023-01-05T22:54:04.863Z,5.28
2023-01-05T22:56:33.763Z,5.20
2023-01-05T22:59:01.915Z,5.03
2023-01-05T23:01:36.038Z,5.05
2023-01-05T23:04:05.624Z,5.40
2023-01-05T23:06:33.772Z,5.25
2023-01-05T23:09:02.797Z,4.68
2023-01-05T23:11:33.162Z,4.97
2023-01-05T23:14:01.891Z,4.82
2023-01-05T23:16:29.725Z,4.90
2023-01-05T23:18:57.186Z,4.43
2023-01-05T23:21:25.914Z,4.32
2023-01-05T23:23:55.164Z,4.75
2023-01-05T23:26:23.421Z,4.47
2023-01-05T23:28:50.702Z,4.63
2023-01-05T23:31:19.329Z,4.78
2023-01-05T23:33:47.870Z,4.60
2023-01-05T23:36:16.607Z,4.13
2023-01-05T23:38:44.482Z,4.22
2023-01-05T23:41:13.217Z,4.10
2023-01-05T23:43:42.070Z,4.22
2023-01-05T23:46:12.092Z,4.00
2023-01-05T23:48:40.182Z,4.28
2023-01-05T23:51:13.336Z,4.00
2023-01-05T23:53:42.809Z,3.92
2023-01-05T23:56:13.479Z,4.22
2023-01-05T23:58:41.263Z,3.88
